createdAt,value
2022-09-15T00:02:24.877Z,16.83
2022-09-15T00:05:26.819Z,17.73
2022-09-15T00:08:28.728Z,22.75
2022-09-15T00:11:32.568Z,21.05
2022-09-15T00:14:34.433Z,19.48
2022-09-15T00:17:36.308Z,26.25
2022-09-15T00:20:42.772Z,18.80
2022-09-15T00:23:44.829Z,20.27
2022-09-15T00:26:46.652Z,21.65
2022-09-15T00:29:48.544Z,20.30
2022-09-15T00:32:50.403Z,24.92
2022-09-15T00:35:53.448Z,21.45
2022-09-15T00:38:55.317Z,20.20
2022-09-15T00:41:57.135Z,19.30
2022-09-15T00:45:00.834Z,23.52
2022-09-15T00:48:02.724Z,22.70
2022-09-15T00:51:04.623Z,23.13
2022-09-15T00:54:12.793Z,21.52
2022-09-15T00:57:19.421Z,24.30
2022-09-15T01:00:22.745Z,25.70
2022-09-15T01:03:24.885Z,24.83
2022-09-15T01:06:40.266Z,28.80
2022-09-15T01:09:49.552Z,27.30
2022-09-15T01:12:51.520Z,35.08
2022-09-15T01:16:15.318Z,31.05
2022-09-15T01:19:37.350Z,26.63
2022-09-15T01:23:03.160Z,31.30
2022-09-15T01:26:05.043Z,27.52
2022-09-15T01:29:26.062Z,28.08
2022-09-15T01:33:04.052Z,22.30
2022-09-15T01:36:14.400Z,19.50
2022-09-15T01:39:18.356Z,16.80
2022-09-15T01:42:20.188Z,19.13
2022-09-15T01:45:26.765Z,22.45
2022-09-15T01:48:28.638Z,15.57
2022-09-15T01:51:30.879Z,20.63
2022-09-15T01:54:36.079Z,17.50
2022-09-15T01:57:37.972Z,20.95
2022-09-15T02:03:55.577Z,15.00
2022-09-15T02:07:11.760Z,16.90
2022-09-15T02:10:37.836Z,14.60
2022-09-15T02:13:54.214Z,14.07
2022-09-15T02:16:56.891Z,15.05
2022-09-15T02:20:08.136Z,14.60
2022-09-15T02:23:18.959Z,17.30
2022-09-15T02:26:24.570Z,21.83
2022-09-15T02:29:27.053Z,17.42
2022-09-15T02:35:31.059Z,19.35
2022-09-15T02:38:35.354Z,21.95
2022-09-15T02:41:37.385Z,21.00
2022-09-15T02:44:39.278Z,19.25
2022-09-15T02:47:41.123Z,20.55
2022-09-15T02:50:42.988Z,21.60
2022-09-15T02:53:45.668Z,23.20
2022-09-15T02:56:47.653Z,25.75
2022-09-15T03:00:08.084Z,23.77
2022-09-15T03:03:10.330Z,22.27
2022-09-15T03:06:19.848Z,22.45
2022-09-15T03:09:21.678Z,24.35
2022-09-15T03:12:23.761Z,18.02
2022-09-15T03:15:25.970Z,21.92
2022-09-15T03:18:27.839Z,20.48
2022-09-15T03:21:29.847Z,21.98
2022-09-15T03:24:31.688Z,21.55
2022-09-15T03:27:34.200Z,20.23
2022-09-15T03:33:37.862Z,21.10
2022-09-15T03:36:39.776Z,26.90
2022-09-15T03:39:41.647Z,26.23
2022-09-15T03:42:43.495Z,21.75
2022-09-15T03:45:45.388Z,24.42
2022-09-15T03:48:47.605Z,26.33
2022-09-15T03:51:49.491Z,32.40
2022-09-15T03:54:51.357Z,25.70
2022-09-15T03:57:53.347Z,26.45
2022-09-15T04:00:55.225Z,25.52
2022-09-15T04:03:58.171Z,23.13
2022-09-15T04:07:00.015Z,23.45
2022-09-15T04:10:02.065Z,19.92
2022-09-15T04:13:03.900Z,18.77
2022-09-15T04:16:08.207Z,20.52
2022-09-15T04:19:10.744Z,18.20
2022-09-15T04:25:19.802Z,27.00
2022-09-15T04:28:21.660Z,23.80
2022-09-15T04:31:23.692Z,22.58
2022-09-15T04:34:25.636Z,20.52
2022-09-15T04:37:27.523Z,24.98
2022-09-15T04:40:29.698Z,21.50
2022-09-15T04:43:31.888Z,26.63
2022-09-15T04:46:33.816Z,21.58
2022-09-15T04:49:35.697Z,23.48
2022-09-15T04:52:37.630Z,26.02
2022-09-15T04:55:39.500Z,24.30
2022-09-15T04:58:42.888Z,26.48
2022-09-15T05:01:44.912Z,26.73
2022-09-15T05:04:48.721Z,27.27
2022-09-15T05:07:50.629Z,22.75
2022-09-15T05:10:53.338Z,22.05
2022-09-15T05:13:55.201Z,22.92
2022-09-15T05:16:57.022Z,26.00
2022-09-15T05:20:01.926Z,22.55
2022-09-15T05:23:03.779Z,18.98
2022-09-15T05:26:07.195Z,24.10
2022-09-15T05:29:09.094Z,19.95
2022-09-15T05:32:10.983Z,21.58
2022-09-15T05:35:12.910Z,20.88
2022-09-15T05:38:15.726Z,22.70
2022-09-15T05:41:18.309Z,21.83
2022-09-15T05:44:21.487Z,22.30
2022-09-15T05:47:23.821Z,20.88
2022-09-15T05:53:27.528Z,18.45
2022-09-15T05:56:29.609Z,21.15
2022-09-15T05:59:31.459Z,23.73
2022-09-15T06:02:33.370Z,21.35
2022-09-15T06:05:35.341Z,18.20
2022-09-15T06:08:41.444Z,22.30
2022-09-15T06:11:45.822Z,19.90
2022-09-15T06:14:51.092Z,25.63
2022-09-15T06:17:52.975Z,23.15
2022-09-15T06:20:54.792Z,20.67
2022-09-15T06:23:58.917Z,16.83
2022-09-15T06:27:00.863Z,17.65
2022-09-15T06:30:02.727Z,16.80
2022-09-15T06:33:04.548Z,17.30
2022-09-15T06:36:07.478Z,13.45
2022-09-15T06:39:09.331Z,17.75
2022-09-15T06:42:13.765Z,19.20
2022-09-15T06:45:17.094Z,12.85
2022-09-15T06:48:24.935Z,16.85
2022-09-15T06:51:31.382Z,14.82
2022-09-15T06:54:33.268Z,12.07
2022-09-15T06:57:36.108Z,16.10
2022-09-15T07:00:38.048Z,13.48
2022-09-15T07:03:41.518Z,15.35
2022-09-15T07:06:43.409Z,15.98
2022-09-15T07:09:48.890Z,14.13
2022-09-15T07:12:51.027Z,12.88
2022-09-15T07:15:57.472Z,14.82
2022-09-15T07:19:01.849Z,15.85
2022-09-15T07:22:03.685Z,16.50
2022-09-15T07:25:06.003Z,14.98
2022-09-15T07:28:07.884Z,13.45
2022-09-15T07:31:11.235Z,15.82
2022-09-15T07:34:13.132Z,16.00
2022-09-15T07:37:16.153Z,13.40
2022-09-15T07:40:18.386Z,19.10
2022-09-15T07:46:23.073Z,15.38
2022-09-15T07:49:24.922Z,12.98
2022-09-15T07:52:26.808Z,11.90
2022-09-15T07:55:30.415Z,12.50
2022-09-15T07:58:33.021Z,15.85
2022-09-15T08:01:34.959Z,28.48
2022-09-15T08:04:36.813Z,15.15
2022-09-15T08:07:40.096Z,15.07
2022-09-15T08:10:41.981Z,23.63
2022-09-15T08:13:43.899Z,15.73
2022-09-15T08:16:45.981Z,14.43
2022-09-15T08:19:47.878Z,18.25
2022-09-15T08:22:49.788Z,17.75
2022-09-15T08:25:52.031Z,13.88
2022-09-15T08:28:53.986Z,14.52
2022-09-15T08:31:55.897Z,13.40
2022-09-15T08:34:57.727Z,14.52
2022-09-15T08:37:59.561Z,16.05
2022-09-15T08:41:06.544Z,15.95
2022-09-15T08:44:20.457Z,13.65
2022-09-15T08:47:36.963Z,12.77
2022-09-15T08:50:41.041Z,13.00
2022-09-15T08:53:45.905Z,16.27
2022-09-15T08:56:47.748Z,16.30
2022-09-15T08:59:49.591Z,21.65
2022-09-15T09:03:15.226Z,16.88
2022-09-15T09:06:38.548Z,20.42
2022-09-15T09:09:43.521Z,16.88
2022-09-15T09:12:51.221Z,17.85
2022-09-15T09:15:57.255Z,19.48
2022-09-15T09:19:14.804Z,16.25
2022-09-15T09:22:18.028Z,13.02
2022-09-15T09:25:28.357Z,17.63
2022-09-15T09:28:39.002Z,12.73
2022-09-15T09:31:41.003Z,15.23
2022-09-15T09:35:01.061Z,18.60
2022-09-15T09:38:02.892Z,16.10
2022-09-15T09:41:18.631Z,18.75
2022-09-15T09:44:20.553Z,16.88
2022-09-15T09:47:27.232Z,12.32
2022-09-15T09:50:34.050Z,14.77
2022-09-15T09:53:36.657Z,17.02
2022-09-15T09:56:38.698Z,14.57
2022-09-15T10:02:47.091Z,17.08
2022-09-15T10:06:04.060Z,15.63
2022-09-15T10:09:13.923Z,21.33
2022-09-15T10:12:20.216Z,13.43
2022-09-15T10:15:26.124Z,14.10
2022-09-15T10:18:37.610Z,13.93
2022-09-15T10:21:39.738Z,14.53
2022-09-15T10:27:43.401Z,12.38
2022-09-15T10:31:16.327Z,11.23
2022-09-15T10:34:31.111Z,15.15
2022-09-15T10:37:57.229Z,14.63
2022-09-15T10:41:20.616Z,17.90
2022-09-15T10:44:45.496Z,12.15
2022-09-15T10:48:24.975Z,12.82
2022-09-15T10:51:53.845Z,13.98
2022-09-15T10:55:10.568Z,14.98
2022-09-15T10:58:28.372Z,10.80
2022-09-15T11:01:30.238Z,10.85
2022-09-15T11:07:46.350Z,14.13
2022-09-15T11:11:08.048Z,13.40
2022-09-15T11:14:10.398Z,10.38
2022-09-15T11:17:25.460Z,13.85
2022-09-15T11:20:49.323Z,12.82
2022-09-15T11:24:16.849Z,11.80
2022-09-15T11:27:25.101Z,13.23
2022-09-15T11:30:36.001Z,9.73
2022-09-15T11:33:45.214Z,11.15
2022-09-15T11:36:56.426Z,13.27
2022-09-15T11:40:25.258Z,8.82
2022-09-15T11:43:34.516Z,11.98
2022-09-15T11:46:50.512Z,13.85
2022-09-15T11:49:57.121Z,13.38
2022-09-15T11:53:19.273Z,12.27
2022-09-15T11:56:53.811Z,11.02
2022-09-15T12:00:00.788Z,8.82
2022-09-15T12:03:24.549Z,11.13
2022-09-15T12:06:49.438Z,14.05
2022-09-15T12:09:51.675Z,10.00
2022-09-15T12:12:53.934Z,10.23
2022-09-15T12:15:55.798Z,10.52
2022-09-15T12:19:15.689Z,11.60
2022-09-15T12:22:20.674Z,10.68
2022-09-15T12:25:26.706Z,11.32
2022-09-15T12:28:42.936Z,9.35
2022-09-15T12:31:45.916Z,7.00
2022-09-15T12:34:56.368Z,12.68
2022-09-15T12:37:58.712Z,11.45
2022-09-15T12:41:00.589Z,9.15
2022-09-15T12:44:14.739Z,10.10
2022-09-15T12:47:49.175Z,9.73
2022-09-15T12:50:55.942Z,7.15
2022-09-15T12:54:04.843Z,11.70
2022-09-15T12:57:08.121Z,7.82
2022-09-15T13:00:20.003Z,9.35
2022-09-15T13:03:28.858Z,10.68
2022-09-15T13:07:21.218Z,12.38
2022-09-15T13:10:34.768Z,8.73
2022-09-15T13:13:54.589Z,10.35
2022-09-15T13:16:58.400Z,9.18
2022-09-15T13:20:02.012Z,9.18
2022-09-15T13:23:03.864Z,8.85
2022-09-15T13:26:06.671Z,7.00
2022-09-15T13:29:09.255Z,8.50
2022-09-15T13:32:16.756Z,9.50
2022-09-15T13:35:46.658Z,10.23
2022-09-15T13:39:16.185Z,9.93
2022-09-15T13:42:40.184Z,11.30
2022-09-15T13:45:54.611Z,9.63
2022-09-15T13:49:26.149Z,12.10
2022-09-15T13:52:52.214Z,8.83
2022-09-15T13:55:55.638Z,9.70
2022-09-15T13:59:10.355Z,10.10
2022-09-15T14:02:14.944Z,8.68
2022-09-15T14:05:17.043Z,10.52
2022-09-15T14:11:25.880Z,12.75
2022-09-15T14:14:40.808Z,8.73
2022-09-15T14:17:46.014Z,8.93
2022-09-15T14:21:01.047Z,8.77
2022-09-15T14:24:06.039Z,7.57
2022-09-15T14:27:08.880Z,11.38
2022-09-15T14:30:31.280Z,10.20
2022-09-15T14:33:38.395Z,9.13
2022-09-15T14:36:40.694Z,13.75
2022-09-15T14:39:48.683Z,10.43
2022-09-15T14:42:50.642Z,10.05
2022-09-15T14:49:11.661Z,10.85
2022-09-15T14:52:25.706Z,10.45
2022-09-15T14:55:32.668Z,11.85
2022-09-15T14:58:39.590Z,8.35
2022-09-15T15:01:46.351Z,7.25
2022-09-15T15:04:51.848Z,9.93
2022-09-15T15:07:55.377Z,9.27
2022-09-15T15:10:57.186Z,8.15
2022-09-15T15:17:02.509Z,10.52
2022-09-15T15:20:10.593Z,9.52
2022-09-15T15:23:23.847Z,10.13
2022-09-15T15:26:35.520Z,10.73
2022-09-15T15:29:43.229Z,7.38
2022-09-15T15:32:45.343Z,10.75
2022-09-15T15:35:47.399Z,8.43
2022-09-15T15:38:52.085Z,7.85
2022-09-15T15:42:08.528Z,10.63
2022-09-15T15:45:16.294Z,10.65
2022-09-15T15:48:18.149Z,9.40
2022-09-15T15:54:23.195Z,8.73
2022-09-15T15:57:27.425Z,15.80
2022-09-15T16:00:38.391Z,9.95
2022-09-15T16:03:40.362Z,8.63
2022-09-15T16:06:42.212Z,9.93
2022-09-15T16:12:46.044Z,9.85
2022-09-15T16:15:48.066Z,9.40
2022-09-15T16:21:52.091Z,14.88
2022-09-15T16:24:55.212Z,14.43
2022-09-15T16:27:57.041Z,12.98
2022-09-15T16:30:59.076Z,9.20
2022-09-15T16:37:02.892Z,17.25
2022-09-15T16:40:05.314Z,13.48
2022-09-15T16:43:10.403Z,14.50
2022-09-15T16:46:12.851Z,13.75
2022-09-15T16:49:14.798Z,10.57
2022-09-15T16:52:16.890Z,12.60
2022-09-15T16:58:25.219Z,8.98
2022-09-15T17:01:27.076Z,8.40
2022-09-15T17:04:28.995Z,10.00
2022-09-15T17:07:30.832Z,10.48
2022-09-15T17:10:33.589Z,7.15
2022-09-15T17:13:35.432Z,14.57
2022-09-15T17:16:37.261Z,10.35
2022-09-15T17:19:39.100Z,9.32
2022-09-15T17:22:41.117Z,10.18
2022-09-15T17:25:48.977Z,8.80
2022-09-15T17:28:51.045Z,7.43
2022-09-15T17:31:52.901Z,6.88
2022-09-15T17:34:54.784Z,8.73
2022-09-15T17:37:56.619Z,7.35
2022-09-15T17:40:58.795Z,8.55
2022-09-15T17:47:03.041Z,8.77
2022-09-15T17:50:05.474Z,10.60
2022-09-15T17:53:26.647Z,13.82
2022-09-15T17:56:28.504Z,10.32
2022-09-15T17:59:30.368Z,11.80
2022-09-15T18:02:32.395Z,8.15
2022-09-15T18:05:35.553Z,9.88
2022-09-15T18:08:37.496Z,10.38
2022-09-15T18:11:39.749Z,8.18
2022-09-15T18:17:43.752Z,9.53
2022-09-15T18:23:47.498Z,8.93
2022-09-15T18:26:49.352Z,11.60
2022-09-15T18:29:51.500Z,7.78
2022-09-15T18:32:53.632Z,9.70
2022-09-15T18:35:56.532Z,7.70
2022-09-15T18:38:58.351Z,8.10
2022-09-15T18:42:00.180Z,9.20
2022-09-15T18:45:02.207Z,8.60
2022-09-15T18:48:04.157Z,10.55
2022-09-15T18:51:09.693Z,13.70
2022-09-15T18:54:11.548Z,16.45
2022-09-15T18:57:13.501Z,11.02
2022-09-15T19:00:25.493Z,6.63
2022-09-15T19:03:27.456Z,8.05
2022-09-15T19:06:29.708Z,9.48
2022-09-15T19:09:31.592Z,12.18
2022-09-15T19:12:34.537Z,10.00
2022-09-15T19:15:36.502Z,9.93
2022-09-15T19:18:38.469Z,11.80
2022-09-15T19:21:40.376Z,10.77
2022-09-15T19:24:42.231Z,12.68
2022-09-15T19:27:44.070Z,10.05
2022-09-15T19:30:45.997Z,13.48
2022-09-15T19:33:47.938Z,10.25
2022-09-15T19:36:49.816Z,11.52
2022-09-15T19:39:51.744Z,13.23
2022-09-15T19:42:53.658Z,13.98
2022-09-15T19:45:56.128Z,11.13
2022-09-15T19:48:58.920Z,12.43
2022-09-15T19:52:00.837Z,14.60
2022-09-15T19:55:03.179Z,12.07
2022-09-15T20:01:06.834Z,9.32
2022-09-15T20:04:09.627Z,13.85
2022-09-15T20:07:12.547Z,11.57
2022-09-15T20:10:15.035Z,12.57
2022-09-15T20:13:17.112Z,10.40
2022-09-15T20:16:19.379Z,10.13
2022-09-15T20:19:21.295Z,10.43
2022-09-15T20:22:23.722Z,8.10
2022-09-15T20:25:25.620Z,10.48
2022-09-15T20:28:27.813Z,8.85
2022-09-15T20:31:29.965Z,9.93
2022-09-15T20:34:31.855Z,8.05
2022-09-15T20:37:37.468Z,10.52
2022-09-15T20:40:39.652Z,9.30
2022-09-15T20:43:42.450Z,11.68
2022-09-15T20:46:44.353Z,8.40
2022-09-15T20:49:46.220Z,10.38
2022-09-15T20:52:48.952Z,7.97
2022-09-15T20:55:50.949Z,9.73
2022-09-15T20:58:57.052Z,9.57
2022-09-15T21:01:58.971Z,9.05
2022-09-15T21:05:00.832Z,11.25
2022-09-15T21:08:02.781Z,9.20
2022-09-15T21:11:05.306Z,10.68
2022-09-15T21:14:07.619Z,9.82
2022-09-15T21:20:11.245Z,12.23
2022-09-15T21:23:13.130Z,13.50
2022-09-15T21:26:16.716Z,12.50
2022-09-15T21:29:18.534Z,13.48
2022-09-15T21:32:20.498Z,15.05
2022-09-15T21:35:22.335Z,14.00
2022-09-15T21:38:24.162Z,10.25
2022-09-15T21:41:28.770Z,12.45
2022-09-15T21:44:30.754Z,12.27
2022-09-15T21:47:34.128Z,7.80
2022-09-15T21:50:36.341Z,9.02
2022-09-15T21:53:38.264Z,7.70
2022-09-15T21:56:40.287Z,7.53
2022-09-15T21:59:42.169Z,7.75
2022-09-15T22:02:43.983Z,7.57
2022-09-15T22:05:46.561Z,11.57
2022-09-15T22:08:48.470Z,8.05
2022-09-15T22:11:50.349Z,6.63
2022-09-15T22:14:52.299Z,8.45
2022-09-15T22:17:54.129Z,6.68
2022-09-15T22:21:07.309Z,9.73
2022-09-15T22:24:10.706Z,12.52
2022-09-15T22:27:12.656Z,7.47
2022-09-15T22:30:14.546Z,7.95
2022-09-15T22:33:16.425Z,8.68
2022-09-15T22:36:19.905Z,11.98
2022-09-15T22:39:27.021Z,10.75
2022-09-15T22:42:40.444Z,10.43
2022-09-15T22:45:42.345Z,12.00
2022-09-15T22:48:44.231Z,14.65
2022-09-15T22:51:46.418Z,14.75
2022-09-15T22:54:48.293Z,11.77
2022-09-15T22:57:50.156Z,14.88
2022-09-15T23:00:52.030Z,16.17
2022-09-15T23:03:55.758Z,13.23
2022-09-15T23:06:57.697Z,21.15
2022-09-15T23:09:59.550Z,15.68
2022-09-15T23:13:01.430Z,12.45
2022-09-15T23:16:03.638Z,13.55
2022-09-15T23:19:05.520Z,18.08
2022-09-15T23:22:07.685Z,15.05
2022-09-15T23:25:09.595Z,11.68
2022-09-15T23:28:11.461Z,10.82
2022-09-15T23:31:13.683Z,10.65
2022-09-15T23:34:15.647Z,10.38
2022-09-15T23:37:17.493Z,7.97
2022-09-15T23:40:19.410Z,10.32
2022-09-15T23:43:21.308Z,10.77
2022-09-15T23:46:23.208Z,11.45
2022-09-15T23:49:25.103Z,15.18
2022-09-15T23:52:26.983Z,13.65
2022-09-15T23:55:28.821Z,9.88
2022-09-15T23:58:30.720Z,8.35
